^^
Saratoga-Weather Station Historical Data
Daily Summary for August 2, 2021 Units:  Both    English   Metric
Daily Weekly Monthly Yearly Custom
  High: Low: Average:
Temperature: 66.9 °F /  19.4 °C 53.2 °F /  11.8 °C 59.2 °F /  15.1 °C
Dew Point: 58.3 °F /  14.6 °C 51.1 °F /  10.6 °C 54.5 °F /  12.5 °C
Humidity: 94% 68% 85%
Wind Speed: 8.1mph /  13km/h - 1.4mph /  2.2km/h
Wind Gust: 11mph /  17.7km/h - -
Wind- - ESE
Pressure: 30 in /  1015.6 hPa 29.6 in /  1002.0 hPa -
Precipitation: 0.11 in /  2.8 mm    
Historical Graphs
 
 
Tabular Data for August 2, 2021
Time Temperature Dew Point Pressure Wind Wind Speed Wind Gust Humidity Rainfall Rate (Hourly) solar
00:03 55 °F /  12.8 °C 51.3 °F /  10.7 °C 30in /  1015.6hPa WNW 2.9mph /  4.7km/h 5mph /  8km/h 87% 0in /  0.0mm 0 W/m2
00:08 54.9 °F /  12.7 °C 51.1 °F /  10.6 °C 30in /  1015.6hPa NNW 2mph /  3.2km/h 2mph /  3.2km/h 87% 0in /  0.0mm 0 W/m2
00:13 54.9 °F /  12.7 °C 51.1 °F /  10.6 °C 30in /  1015.6hPa NW 0.9mph /  1.4km/h 5mph /  8km/h 87% 0in /  0.0mm 0 W/m2
00:18 55 °F /  12.8 °C 51.3 °F /  10.7 °C 30in /  1015.6hPa WNW 0.9mph /  1.4km/h 2mph /  3.2km/h 87% 0in /  0.0mm 0 W/m2
00:23 55 °F /  12.8 °C 51.3 °F /  10.7 °C 30in /  1015.6hPa WNW 0.9mph /  1.4km/h 6mph /  9.7km/h 87% 0in /  0.0mm 0 W/m2
00:28 54.9 °F /  12.7 °C 51.4 °F /  10.8 °C 30in /  1015.6hPa NW 2mph /  3.2km/h 4mph /  6.4km/h 88% 0in /  0.0mm 0 W/m2
00:33 54.9 °F /  12.7 °C 51.4 °F /  10.8 °C 30in /  1015.6hPa WNW 2mph /  3.2km/h 6mph /  9.7km/h 88% 0in /  0.0mm 0 W/m2
00:38 55 °F /  12.8 °C 51.6 °F /  10.9 °C 30in /  1015.6hPa West 4mph /  6.4km/h 4mph /  6.4km/h 88% 0in /  0.0mm 0 W/m2
00:43 55 °F /  12.8 °C 51.3 °F /  10.7 °C 30in /  1015.6hPa NW 2.9mph /  4.7km/h 6mph /  9.7km/h 87% 0in /  0.0mm 0 W/m2
00:48 55 °F /  12.8 °C 51.6 °F /  10.9 °C 30in /  1015.6hPa NNW 0.9mph /  1.4km/h 3mph /  4.8km/h 88% 0in /  0.0mm 0 W/m2
00:53 54.9 °F /  12.7 °C 51.4 °F /  10.8 °C 30in /  1015.6hPa WNW 4mph /  6.4km/h 7mph /  11.3km/h 88% 0in /  0.0mm 0 W/m2
00:58 54.7 °F /  12.6 °C 51.4 °F /  10.8 °C 30in /  1015.6hPa NW 4.9mph /  7.9km/h 9mph /  14.5km/h 89% 0.01in /  0.2mm 0 W/m2
01:03 54.7 °F /  12.6 °C 51.8 °F /  11 °C 30in /  1015.6hPa WNW 2.9mph /  4.7km/h 5mph /  8km/h 90% 0.02in /  0.5mm 0 W/m2
01:08 54.5 °F /  12.5 °C 51.6 °F /  10.9 °C 30in /  1015.2hPa NNW 0.9mph /  1.4km/h 9mph /  14.5km/h 90% 0.03in /  0.8mm 0 W/m2
01:13 54.3 °F /  12.4 °C 51.4 °F /  10.8 °C 30in /  1015.2hPa NW 2mph /  3.2km/h 4mph /  6.4km/h 90% 0.04in /  1.0mm 0 W/m2
01:18 54.3 °F /  12.4 °C 51.8 °F /  11 °C 30in /  1015.2hPa Calm   3mph /  4.8km/h 91% 0.04in /  1.0mm 0 W/m2
01:23 54.3 °F /  12.4 °C 51.8 °F /  11 °C 30in /  1015.2hPa Calm   4mph /  6.4km/h 91% 0.04in /  1.0mm 0 W/m2
01:28 54.3 °F /  12.4 °C 51.8 °F /  11 °C 30in /  1015.2hPa NNW 0.9mph /  1.4km/h 1mph /  1.6km/h 91% 0.04in /  1.0mm 0 W/m2
01:33 54.1 °F /  12.3 °C 51.6 °F /  10.9 °C 30in /  1015.2hPa Calm   1mph /  1.6km/h 91% 0.04in /  1.0mm 0 W/m2
01:38 54.1 °F /  12.3 °C 51.6 °F /  10.9 °C 30in /  1015.2hPa Calm   2mph /  3.2km/h 91% 0.04in /  1.0mm 0 W/m2
01:43 54.1 °F /  12.3 °C 51.6 °F /  10.9 °C 30in /  1015.2hPa Calm   1mph /  1.6km/h 91% 0.04in /  1.0mm 0 W/m2
01:48 54.1 °F /  12.3 °C 51.8 °F /  11 °C 30in /  1015.2hPa Calm     92% 0.04in /  1.0mm 0 W/m2
01:53 54 °F /  12.2 °C 51.6 °F /  10.9 °C 30in /  1015.2hPa North 0.9mph /  1.4km/h 1mph /  1.6km/h 92% 0.04in /  1.0mm 0 W/m2
01:58 54 °F /  12.2 °C 51.6 °F /  10.9 °C 30in /  1014.9hPa Calm   1mph /  1.6km/h 92% 0.03in /  0.8mm 0 W/m2
02:03 54 °F /  12.2 °C 51.6 °F /  10.9 °C 30in /  1014.9hPa Calm     92% 0.02in /  0.5mm 0 W/m2
02:08 53.8 °F /  12.1 °C 51.4 °F /  10.8 °C 30in /  1014.9hPa Calm     92% 0.01in /  0.2mm 0 W/m2
02:13 53.8 °F /  12.1 °C 51.8 °F /  11 °C 30in /  1014.9hPa Calm   1mph /  1.6km/h 93% 0in /  0.0mm 0 W/m2
02:18 53.8 °F /  12.1 °C 51.8 °F /  11 °C 30in /  1014.9hPa Calm   1mph /  1.6km/h 93% 0in /  0.0mm 0 W/m2
02:23 53.8 °F /  12.1 °C 51.8 °F /  11 °C 30in /  1014.9hPa East 2mph /  3.2km/h 2mph /  3.2km/h 93% 0in /  0.0mm 0 W/m2
02:28 53.8 °F /  12.1 °C 51.8 °F /  11 °C 30in /  1014.9hPa East 0.9mph /  1.4km/h 2mph /  3.2km/h 93% 0in /  0.0mm 0 W/m2
02:33 53.6 °F /  12 °C 51.6 °F /  10.9 °C 30in /  1014.9hPa Calm   1mph /  1.6km/h 93% 0in /  0.0mm 0 W/m2
02:38 53.6 °F /  12 °C 51.6 °F /  10.9 °C 30in /  1014.9hPa East 0.9mph /  1.4km/h 2mph /  3.2km/h 93% 0in /  0.0mm 0 W/m2
02:43 53.8 °F /  12.1 °C 51.8 °F /  11 °C 30in /  1014.9hPa East 0.9mph /  1.4km/h 3mph /  4.8km/h 93% 0in /  0.0mm 0 W/m2
02:48 53.8 °F /  12.1 °C 51.8 °F /  11 °C 30in /  1014.9hPa Calm   2mph /  3.2km/h 93% 0in /  0.0mm 0 W/m2
02:53 53.8 °F /  12.1 °C 51.8 °F /  11 °C 30in /  1014.9hPa Calm   3mph /  4.8km/h 93% 0in /  0.0mm 0 W/m2
02:58 53.8 °F /  12.1 °C 51.8 °F /  11 °C 30in /  1014.9hPa Calm   1mph /  1.6km/h 93% 0in /  0.0mm 0 W/m2
03:03 53.8 °F /  12.1 °C 51.8 °F /  11 °C 30in /  1014.9hPa Calm   1mph /  1.6km/h 93% 0in /  0.0mm 0 W/m2
03:08 53.6 °F /  12 °C 52 °F /  11.1 °C 30in /  1014.6hPa Calm   1mph /  1.6km/h 94% 0in /  0.0mm 0 W/m2
03:13 53.6 °F /  12 °C 52 °F /  11.1 °C 30in /  1014.6hPa Calm     94% 0in /  0.0mm 0 W/m2
03:19 53.4 °F /  11.9 °C 51.8 °F /  11 °C 30in /  1014.6hPa Calm     94% 0in /  0.0mm 0 W/m2
03:24 53.4 °F /  11.9 °C 51.8 °F /  11 °C 30in /  1014.6hPa Calm     94% 0in /  0.0mm 0 W/m2
03:29 53.4 °F /  11.9 °C 51.8 °F /  11 °C 30in /  1014.6hPa Calm     94% 0in /  0.0mm 0 W/m2
03:34 53.2 °F /  11.8 °C 51.6 °F /  10.9 °C 30in /  1014.6hPa Calm     94% 0in /  0.0mm 0 W/m2
03:39 53.2 °F /  11.8 °C 51.6 °F /  10.9 °C 30in /  1014.6hPa Calm   1mph /  1.6km/h 94% 0in /  0.0mm 0 W/m2
03:44 53.2 °F /  11.8 °C 51.6 °F /  10.9 °C 30in /  1014.6hPa Calm   3mph /  4.8km/h 94% 0in /  0.0mm 0 W/m2
03:49 53.2 °F /  11.8 °C 51.6 °F /  10.9 °C 30in /  1014.6hPa East 0.9mph /  1.4km/h 1mph /  1.6km/h 94% 0in /  0.0mm 0 W/m2
03:54 53.2 °F /  11.8 °C 51.6 °F /  10.9 °C 30in /  1014.6hPa Calm   3mph /  4.8km/h 94% 0in /  0.0mm 0 W/m2
03:59 53.4 °F /  11.9 °C 51.8 °F /  11 °C 30in /  1014.6hPa ENE 0.9mph /  1.4km/h 2mph /  3.2km/h 94% 0in /  0.0mm 0 W/m2
04:04 53.4 °F /  11.9 °C 51.8 °F /  11 °C 30in /  1014.6hPa ENE 2.9mph /  4.7km/h 3mph /  4.8km/h 94% 0in /  0.0mm 0 W/m2
04:09 53.6 °F /  12 °C 52 °F /  11.1 °C 30in /  1014.6hPa NE 2mph /  3.2km/h 3mph /  4.8km/h 94% 0in /  0.0mm 0 W/m2
04:14 53.8 °F /  12.1 °C 52.2 °F /  11.2 °C 30in /  1014.2hPa Calm   1mph /  1.6km/h 94% 0in /  0.0mm 0 W/m2
04:19 54 °F /  12.2 °C 52 °F /  11.1 °C 30in /  1014.2hPa East 0.9mph /  1.4km/h 2mph /  3.2km/h 93% 0in /  0.0mm 0 W/m2
04:24 54.1 °F /  12.3 °C 52.2 °F /  11.2 °C 30in /  1014.2hPa NE 2mph /  3.2km/h 2mph /  3.2km/h 93% 0in /  0.0mm 0 W/m2
04:29 54.5 °F /  12.5 °C 52.5 °F /  11.4 °C 30in /  1014.2hPa North 2mph /  3.2km/h 5mph /  8km/h 93% 0in /  0.0mm 0 W/m2
04:34 54.7 °F /  12.6 °C 52.3 °F /  11.3 °C 30in /  1014.2hPa NE 2mph /  3.2km/h 3mph /  4.8km/h 92% 0in /  0.0mm 0 W/m2
04:39 54.9 °F /  12.7 °C 52.5 °F /  11.4 °C 30in /  1014.2hPa WNW 0.9mph /  1.4km/h 5mph /  8km/h 92% 0in /  0.0mm 0 W/m2
04:44 54.9 °F /  12.7 °C 52.3 °F /  11.3 °C 30in /  1014.2hPa NNW 2mph /  3.2km/h 4mph /  6.4km/h 91% 0in /  0.0mm 0 W/m2
04:49 55 °F /  12.8 °C 52.5 °F /  11.4 °C 29.9in /  1013.9hPa East 2mph /  3.2km/h 2mph /  3.2km/h 91% 0in /  0.0mm 0 W/m2
04:54 55 °F /  12.8 °C 52.5 °F /  11.4 °C 29.9in /  1013.9hPa North 2mph /  3.2km/h 2mph /  3.2km/h 91% 0in /  0.0mm 0 W/m2
04:59 55 °F /  12.8 °C 52.5 °F /  11.4 °C 29.9in /  1013.9hPa North 0.9mph /  1.4km/h 3mph /  4.8km/h 91% 0in /  0.0mm 0 W/m2
05:04 55 °F /  12.8 °C 52.5 °F /  11.4 °C 29.9in /  1013.9hPa Calm   2mph /  3.2km/h 91% 0in /  0.0mm 0 W/m2
05:09 55 °F /  12.8 °C 52.5 °F /  11.4 °C 29.9in /  1013.9hPa NW 0.9mph /  1.4km/h 3mph /  4.8km/h 91% 0in /  0.0mm 0 W/m2
05:14 55 °F /  12.8 °C 52.5 °F /  11.4 °C 30in /  1014.2hPa North 0.9mph /  1.4km/h 3mph /  4.8km/h 91% 0in /  0.0mm 0 W/m2
05:19 55 °F /  12.8 °C 52.5 °F /  11.4 °C 29.9in /  1013.9hPa ENE 0.9mph /  1.4km/h 3mph /  4.8km/h 91% 0in /  0.0mm 0 W/m2
05:24 54.9 °F /  12.7 °C 52.3 °F /  11.3 °C 29.9in /  1013.9hPa Calm   1mph /  1.6km/h 91% 0in /  0.0mm 0 W/m2
05:29 54.9 °F /  12.7 °C 52.3 °F /  11.3 °C 29.9in /  1013.5hPa Calm   4mph /  6.4km/h 91% 0in /  0.0mm 0 W/m2
05:34 54.9 °F /  12.7 °C 52.3 °F /  11.3 °C 29.9in /  1013.5hPa Calm   1mph /  1.6km/h 91% 0in /  0.0mm 0 W/m2
05:39 54.9 °F /  12.7 °C 52.3 °F /  11.3 °C 29.9in /  1013.5hPa West 2mph /  3.2km/h 2mph /  3.2km/h 91% 0.01in /  0.2mm 0 W/m2
05:44 54.9 °F /  12.7 °C 52.3 °F /  11.3 °C 29.9in /  1013.5hPa Calm   2mph /  3.2km/h 91% 0.01in /  0.2mm 0 W/m2
05:49 54.9 °F /  12.7 °C 52.3 °F /  11.3 °C 29.9in /  1013.5hPa Calm   2mph /  3.2km/h 91% 0.01in /  0.2mm 0 W/m2
05:54 54.7 °F /  12.6 °C 52.2 °F /  11.2 °C 29.9in /  1013.5hPa NNW 0.9mph /  1.4km/h 2mph /  3.2km/h 91% 0.02in /  0.5mm 0 W/m2
05:59 54.7 °F /  12.6 °C 52.3 °F /  11.3 °C 29.9in /  1013.5hPa Calm   3mph /  4.8km/h 92% 0.02in /  0.5mm 0 W/m2
06:04 54.7 °F /  12.6 °C 52.3 °F /  11.3 °C 29.9in /  1013.5hPa NE 0.9mph /  1.4km/h 2mph /  3.2km/h 92% 0.02in /  0.5mm 0 W/m2
06:09 54.7 °F /  12.6 °C 52.3 °F /  11.3 °C 29.9in /  1013.5hPa Calm   4mph /  6.4km/h 92% 0.02in /  0.5mm 0 W/m2
06:14 54.7 °F /  12.6 °C 52.3 °F /  11.3 °C 29.9in /  1013.5hPa ENE 0.9mph /  1.4km/h 1mph /  1.6km/h 92% 0.02in /  0.5mm 0 W/m2
06:19 54.5 °F /  12.5 °C 52.5 °F /  11.4 °C 29.9in /  1013.5hPa ENE 0.9mph /  1.4km/h 3mph /  4.8km/h 93% 0.02in /  0.5mm 0 W/m2
06:24 54.5 °F /  12.5 °C 52.5 °F /  11.4 °C 29.9in /  1013.5hPa NE 0.9mph /  1.4km/h 2mph /  3.2km/h 93% 0.03in /  0.8mm 0 W/m2
06:29 54.5 °F /  12.5 °C 52.5 °F /  11.4 °C 29.9in /  1013.5hPa Calm   2mph /  3.2km/h 93% 0.03in /  0.8mm 0 W/m2
06:34 54.5 °F /  12.5 °C 52.5 °F /  11.4 °C 29.9in /  1013.5hPa NE 0.9mph /  1.4km/h 3mph /  4.8km/h 93% 0.04in /  1.0mm 0 W/m2
06:39 54.3 °F /  12.4 °C 52.3 °F /  11.3 °C 29.9in /  1013.2hPa NE 2mph /  3.2km/h 3mph /  4.8km/h 93% 0.03in /  0.8mm 0 W/m2
06:44 54.3 °F /  12.4 °C 52.3 °F /  11.3 °C 29.9in /  1013.2hPa Calm   3mph /  4.8km/h 93% 0.03in /  0.8mm 0 W/m2
06:49 54.3 °F /  12.4 °C 52.7 °F /  11.5 °C 29.9in /  1013.2hPa NE 2mph /  3.2km/h 3mph /  4.8km/h 94% 0.03in /  0.8mm 0 W/m2
06:54 54.3 °F /  12.4 °C 52.7 °F /  11.5 °C 29.9in /  1013.2hPa NE 0.9mph /  1.4km/h 1mph /  1.6km/h 94% 0.02in /  0.5mm 0 W/m2
06:59 54.1 °F /  12.3 °C 52.5 °F /  11.4 °C 29.9in /  1013.2hPa NE 2mph /  3.2km/h 2mph /  3.2km/h 94% 0.02in /  0.5mm 0 W/m2
07:04 54.1 °F /  12.3 °C 52.5 °F /  11.4 °C 29.9in /  1013.2hPa Calm   1mph /  1.6km/h 94% 0.02in /  0.5mm 0 W/m2
07:09 54.1 °F /  12.3 °C 52.5 °F /  11.4 °C 29.9in /  1013.2hPa Calm     94% 0.02in /  0.5mm 0 W/m2
07:14 54.1 °F /  12.3 °C 52.5 °F /  11.4 °C 29.9in /  1013.2hPa Calm   1mph /  1.6km/h 94% 0.02in /  0.5mm 0 W/m2
07:19 54.1 °F /  12.3 °C 52.5 °F /  11.4 °C 29.9in /  1013.2hPa NE 0.9mph /  1.4km/h 3mph /  4.8km/h 94% 0.02in /  0.5mm 0 W/m2
07:24 54.1 °F /  12.3 °C 52.5 °F /  11.4 °C 29.9in /  1013.2hPa NNE 2mph /  3.2km/h 2mph /  3.2km/h 94% 0.01in /  0.2mm 0 W/m2
07:29 54.1 °F /  12.3 °C 52.5 °F /  11.4 °C 29.9in /  1013.2hPa NE 0.9mph /  1.4km/h 3mph /  4.8km/h 94% 0.01in /  0.2mm 0 W/m2
07:34 54.1 °F /  12.3 °C 52.5 °F /  11.4 °C 29.9in /  1013.2hPa Calm   2mph /  3.2km/h 94% 0in /  0.0mm 0 W/m2
07:39 54.1 °F /  12.3 °C 52.5 °F /  11.4 °C 29.9in /  1013.2hPa NE 0.9mph /  1.4km/h 4mph /  6.4km/h 94% 0in /  0.0mm 0 W/m2
07:44 54.1 °F /  12.3 °C 52.5 °F /  11.4 °C 29.9in /  1012.9hPa NE 2.9mph /  4.7km/h 4mph /  6.4km/h 94% 0in /  0.0mm 0 W/m2
07:49 54.1 °F /  12.3 °C 52.5 °F /  11.4 °C 29.9in /  1013.2hPa NE 2mph /  3.2km/h 5mph /  8km/h 94% 0in /  0.0mm 0 W/m2
07:54 54.1 °F /  12.3 °C 52.5 °F /  11.4 °C 29.9in /  1013.2hPa Calm   2mph /  3.2km/h 94% 0in /  0.0mm 7 W/m2
07:59 54.1 °F /  12.3 °C 52.5 °F /  11.4 °C 29.9in /  1013.2hPa NE 0.9mph /  1.4km/h 5mph /  8km/h 94% 0in /  0.0mm 7 W/m2
08:04 54.1 °F /  12.3 °C 52.5 °F /  11.4 °C 29.9in /  1013.2hPa NNE 2mph /  3.2km/h 3mph /  4.8km/h 94% 0in /  0.0mm 12 W/m2
08:09 54.1 °F /  12.3 °C 52.5 °F /  11.4 °C 29.9in /  1013.2hPa NNE 0.9mph /  1.4km/h 2mph /  3.2km/h 94% 0in /  0.0mm 14 W/m2
08:14 54.1 °F /  12.3 °C 52.5 °F /  11.4 °C 29.9in /  1013.2hPa Calm   1mph /  1.6km/h 94% 0in /  0.0mm 14 W/m2
08:19 54.3 °F /  12.4 °C 52.7 °F /  11.5 °C 29.9in /  1013.2hPa North 0.9mph /  1.4km/h 2mph /  3.2km/h 94% 0in /  0.0mm 14 W/m2
08:24 54.3 °F /  12.4 °C 52.7 °F /  11.5 °C 29.9in /  1013.2hPa North 0.9mph /  1.4km/h 1mph /  1.6km/h 94% 0in /  0.0mm 19 W/m2
08:29 54.3 °F /  12.4 °C 52.7 °F /  11.5 °C 29.9in /  1013.2hPa Calm     94% 0in /  0.0mm 21 W/m2
08:34 54.3 °F /  12.4 °C 52.7 °F /  11.5 °C 29.9in /  1013.2hPa NE 0.9mph /  1.4km/h 1mph /  1.6km/h 94% 0in /  0.0mm 26 W/m2
08:39 54.5 °F /  12.5 °C 52.9 °F /  11.6 °C 29.9in /  1013.2hPa NE 2.9mph /  4.7km/h 3mph /  4.8km/h 94% 0in /  0.0mm 33 W/m2
08:44 54.5 °F /  12.5 °C 52.9 °F /  11.6 °C 29.9in /  1013.2hPa NE 2mph /  3.2km/h 2mph /  3.2km/h 94% 0in /  0.0mm 40 W/m2
08:49 54.7 °F /  12.6 °C 53.1 °F /  11.7 °C 29.9in /  1013.2hPa Calm   2mph /  3.2km/h 94% 0in /  0.0mm 32 W/m2
08:54 54.7 °F /  12.6 °C 53.1 °F /  11.7 °C 29.9in /  1013.2hPa NE 2.9mph /  4.7km/h 4mph /  6.4km/h 94% 0in /  0.0mm 49 W/m2
08:59 54.7 °F /  12.6 °C 53.1 °F /  11.7 °C 29.9in /  1013.2hPa NE 0.9mph /  1.4km/h 3mph /  4.8km/h 94% 0in /  0.0mm 65 W/m2
09:04 54.9 °F /  12.7 °C 53.2 °F /  11.8 °C 29.9in /  1013.2hPa Calm   2mph /  3.2km/h 94% 0.01in /  0.2mm 44 W/m2
09:09 54.9 °F /  12.7 °C 53.2 °F /  11.8 °C 29.9in /  1013.2hPa Calm   2mph /  3.2km/h 94% 0.01in /  0.2mm 53 W/m2
09:14 54.9 °F /  12.7 °C 53.2 °F /  11.8 °C 29.9in /  1013.2hPa NE 2mph /  3.2km/h 2mph /  3.2km/h 94% 0.01in /  0.2mm 81 W/m2
09:19 55 °F /  12.8 °C 53.4 °F /  11.9 °C 29.9in /  1013.2hPa Calm   2mph /  3.2km/h 94% 0.01in /  0.2mm 84 W/m2
09:24 55.2 °F /  12.9 °C 53.6 °F /  12 °C 29.9in /  1012.9hPa Calm   3mph /  4.8km/h 94% 0.01in /  0.2mm 272 W/m2
09:29 55.2 °F /  12.9 °C 53.6 °F /  12 °C 29.9in /  1012.9hPa Calm   2mph /  3.2km/h 94% 0.01in /  0.2mm 137 W/m2
09:34 55.6 °F /  13.1 °C 54 °F /  12.2 °C 29.9in /  1012.9hPa Calm   2mph /  3.2km/h 94% 0.01in /  0.2mm 116 W/m2
09:39 55.6 °F /  13.1 °C 54 °F /  12.2 °C 29.9in /  1013.2hPa NE 0.9mph /  1.4km/h 3mph /  4.8km/h 94% 0.01in /  0.2mm 56 W/m2
09:44 55.8 °F /  13.2 °C 53.8 °F /  12.1 °C 29.9in /  1013.2hPa East 2mph /  3.2km/h 4mph /  6.4km/h 93% 0.01in /  0.2mm 69 W/m2
09:49 55.8 °F /  13.2 °C 53.8 °F /  12.1 °C 29.9in /  1013.2hPa Calm     93% 0.01in /  0.2mm 46 W/m2
09:54 55.8 °F /  13.2 °C 53.8 °F /  12.1 °C 29.9in /  1013.2hPa NE 0.9mph /  1.4km/h 2mph /  3.2km/h 93% 0.01in /  0.2mm 32 W/m2
09:59 55.9 °F /  13.3 °C 54 °F /  12.2 °C 29.9in /  1012.9hPa NE 0.9mph /  1.4km/h 3mph /  4.8km/h 93% 0.01in /  0.2mm 49 W/m2
10:04 55.9 °F /  13.3 °C 54 °F /  12.2 °C 29.9in /  1012.9hPa Calm   2mph /  3.2km/h 93% 0in /  0.0mm 81 W/m2
10:09 55.9 °F /  13.3 °C 54 °F /  12.2 °C 29.9in /  1012.9hPa Calm   2mph /  3.2km/h 93% 0in /  0.0mm 109 W/m2
10:14 56.1 °F /  13.4 °C 54.1 °F /  12.3 °C 29.9in /  1012.9hPa NNE 0.9mph /  1.4km/h 2mph /  3.2km/h 93% 0in /  0.0mm 69 W/m2
10:19 56.1 °F /  13.4 °C 54.1 °F /  12.3 °C 29.9in /  1012.5hPa WNW 0.9mph /  1.4km/h 2mph /  3.2km/h 93% 0in /  0.0mm 132 W/m2
10:24 56.1 °F /  13.4 °C 54.1 °F /  12.3 °C 29.9in /  1012.5hPa NNW 2mph /  3.2km/h 4mph /  6.4km/h 93% 0in /  0.0mm 158 W/m2
10:29 56.5 °F /  13.6 °C 54.5 °F /  12.5 °C 29.9in /  1012.5hPa Calm   2mph /  3.2km/h 93% 0in /  0.0mm 148 W/m2
10:34 56.7 °F /  13.7 °C 54.3 °F /  12.4 °C 29.9in /  1012.5hPa NNW 0.9mph /  1.4km/h 2mph /  3.2km/h 92% 0in /  0.0mm 149 W/m2
10:39 56.8 °F /  13.8 °C 54.5 °F /  12.5 °C 29.9in /  1012.5hPa NE 0.9mph /  1.4km/h 3mph /  4.8km/h 92% 0in /  0.0mm 109 W/m2
10:44 57 °F /  13.9 °C 54.7 °F /  12.6 °C 29.9in /  1012.5hPa NNE 2mph /  3.2km/h 2mph /  3.2km/h 92% 0in /  0.0mm 98 W/m2
10:49 57 °F /  13.9 °C 54.7 °F /  12.6 °C 29.9in /  1012.5hPa ENE 2.9mph /  4.7km/h 4mph /  6.4km/h 92% 0in /  0.0mm 137 W/m2
10:54 57.2 °F /  14 °C 54.7 °F /  12.6 °C 29.9in /  1012.5hPa Calm   4mph /  6.4km/h 91% 0in /  0.0mm 111 W/m2
10:59 57.4 °F /  14.1 °C 54.9 °F /  12.7 °C 29.9in /  1012.5hPa North 2mph /  3.2km/h 4mph /  6.4km/h 91% 0in /  0.0mm 214 W/m2
11:04 57.6 °F /  14.2 °C 55 °F /  12.8 °C 29.9in /  1012.2hPa North 2.9mph /  4.7km/h 5mph /  8km/h 91% 0in /  0.0mm 216 W/m2
11:09 57.6 °F /  14.2 °C 54.7 °F /  12.6 °C 29.9in /  1012.2hPa NNW 2mph /  3.2km/h 3mph /  4.8km/h 90% 0in /  0.0mm 81 W/m2
11:14 57.6 °F /  14.2 °C 54.7 °F /  12.6 °C 29.9in /  1012.2hPa Calm   3mph /  4.8km/h 90% 0in /  0.0mm 60 W/m2
11:19 57.6 °F /  14.2 °C 54.7 °F /  12.6 °C 29.9in /  1012.2hPa NNW 0.9mph /  1.4km/h 2mph /  3.2km/h 90% 0in /  0.0mm 72 W/m2
11:24 57.6 °F /  14.2 °C 54.7 °F /  12.6 °C 29.9in /  1012.2hPa NNE 2mph /  3.2km/h 2mph /  3.2km/h 90% 0in /  0.0mm 97 W/m2
11:29 57.7 °F /  14.3 °C 54.9 °F /  12.7 °C 29.9in /  1012.2hPa NNE 0.9mph /  1.4km/h 2mph /  3.2km/h 90% 0in /  0.0mm 158 W/m2
11:34 57.9 °F /  14.4 °C 55 °F /  12.8 °C 29.9in /  1011.9hPa Calm   2mph /  3.2km/h 90% 0in /  0.0mm 172 W/m2
11:39 58.1 °F /  14.5 °C 54.9 °F /  12.7 °C 29.9in /  1011.9hPa Calm   5mph /  8km/h 89% 0in /  0.0mm 176 W/m2
11:44 58.3 °F /  14.6 °C 55 °F /  12.8 °C 29.9in /  1011.9hPa ENE 0.9mph /  1.4km/h 3mph /  4.8km/h 89% 0in /  0.0mm 190 W/m2
11:49 58.5 °F /  14.7 °C 55.2 °F /  12.9 °C 29.9in /  1011.9hPa East 2mph /  3.2km/h 2mph /  3.2km/h 89% 0in /  0.0mm 225 W/m2
11:54 58.6 °F /  14.8 °C 55.4 °F /  13 °C 29.9in /  1011.9hPa ESE 0.9mph /  1.4km/h 2mph /  3.2km/h 89% 0in /  0.0mm 121 W/m2
11:59 58.6 °F /  14.8 °C 55 °F /  12.8 °C 29.9in /  1011.9hPa WNW 0.9mph /  1.4km/h 2mph /  3.2km/h 88% 0in /  0.0mm 118 W/m2
12:04 58.6 °F /  14.8 °C 55 °F /  12.8 °C 29.9in /  1011.9hPa NW 0.9mph /  1.4km/h 3mph /  4.8km/h 88% 0in /  0.0mm 188 W/m2
12:09 58.8 °F /  14.9 °C 55.2 °F /  12.9 °C 29.9in /  1011.9hPa NNE 2mph /  3.2km/h 4mph /  6.4km/h 88% 0in /  0.0mm 241 W/m2
12:15 59.2 °F /  15.1 °C 55.4 °F /  13 °C 29.9in /  1011.5hPa East 2.9mph /  4.7km/h 8mph /  12.9km/h 87% 0in /  0.0mm 214 W/m2
12:20 59.2 °F /  15.1 °C 55 °F /  12.8 °C 29.9in /  1011.5hPa East 2mph /  3.2km/h 4mph /  6.4km/h 86% 0in /  0.0mm 278 W/m2
12:25 59.5 °F /  15.3 °C 55.4 °F /  13 °C 29.9in /  1011.2hPa Calm   7mph /  11.3km/h 86% 0in /  0.0mm 156 W/m2
12:30 59.7 °F /  15.4 °C 55.6 °F /  13.1 °C 29.9in /  1011.2hPa NE 2.9mph /  4.7km/h 4mph /  6.4km/h 86% 0in /  0.0mm 213 W/m2
12:35 59.9 °F /  15.5 °C 55.4 °F /  13 °C 29.9in /  1011.2hPa Calm   9mph /  14.5km/h 85% 0in /  0.0mm 148 W/m2
12:40 59.9 °F /  15.5 °C 55.4 °F /  13 °C 29.9in /  1011.2hPa NE 0.9mph /  1.4km/h 3mph /  4.8km/h 85% 0in /  0.0mm 232 W/m2
12:45 60.1 °F /  15.6 °C 55.6 °F /  13.1 °C 29.9in /  1010.8hPa ENE 4mph /  6.4km/h 9mph /  14.5km/h 85% 0in /  0.0mm 192 W/m2
12:50 60.3 °F /  15.7 °C 55.4 °F /  13 °C 29.9in /  1010.8hPa WNW 0.9mph /  1.4km/h 3mph /  4.8km/h 84% 0in /  0.0mm 278 W/m2
12:55 60.4 °F /  15.8 °C 55.6 °F /  13.1 °C 29.9in /  1010.8hPa Calm   4mph /  6.4km/h 84% 0in /  0.0mm 243 W/m2
13:00 60.6 °F /  15.9 °C 55.4 °F /  13 °C 29.9in /  1010.8hPa ESE 0.9mph /  1.4km/h 8mph /  12.9km/h 83% 0in /  0.0mm 408 W/m2
13:05 61 °F /  16.1 °C 55.8 °F /  13.2 °C 29.9in /  1010.8hPa ESE 2.9mph /  4.7km/h 6mph /  9.7km/h 83% 0in /  0.0mm 308 W/m2
13:10 61.2 °F /  16.2 °C 55.2 °F /  12.9 °C 29.9in /  1010.8hPa ESE 4mph /  6.4km/h 8mph /  12.9km/h 81% 0in /  0.0mm 281 W/m2
13:15 61.3 °F /  16.3 °C 55.4 °F /  13 °C 29.9in /  1010.8hPa NNE 2mph /  3.2km/h 5mph /  8km/h 81% 0in /  0.0mm 206 W/m2
13:20 61.3 °F /  16.3 °C 55.4 °F /  13 °C 29.9in /  1010.8hPa NE 0.9mph /  1.4km/h 3mph /  4.8km/h 81% 0in /  0.0mm 192 W/m2
13:25 61.5 °F /  16.4 °C 55.6 °F /  13.1 °C 29.9in /  1010.8hPa North 0.9mph /  1.4km/h 3mph /  4.8km/h 81% 0in /  0.0mm 146 W/m2
13:30 61.5 °F /  16.4 °C 55.2 °F /  12.9 °C 29.9in /  1010.8hPa North 0.9mph /  1.4km/h 2mph /  3.2km/h 80% 0in /  0.0mm 151 W/m2
13:35 61.7 °F /  16.5 °C 55 °F /  12.8 °C 29.8in /  1010.5hPa NE 2mph /  3.2km/h 4mph /  6.4km/h 79% 0in /  0.0mm 309 W/m2
13:40 62.1 °F /  16.7 °C 55.8 °F /  13.2 °C 29.8in /  1010.5hPa NE 2mph /  3.2km/h 4mph /  6.4km/h 80% 0in /  0.0mm 327 W/m2
13:45 62.2 °F /  16.8 °C 55.2 °F /  12.9 °C 29.8in /  1010.5hPa North 0.9mph /  1.4km/h 2mph /  3.2km/h 78% 0in /  0.0mm 223 W/m2
13:50 62.4 °F /  16.9 °C 55.4 °F /  13 °C 29.8in /  1010.5hPa NW 4mph /  6.4km/h 6mph /  9.7km/h 78% 0in /  0.0mm 130 W/m2
13:55 62.4 °F /  16.9 °C 55.4 °F /  13 °C 29.8in /  1010.2hPa WNW 2.9mph /  4.7km/h 9mph /  14.5km/h 78% 0in /  0.0mm 278 W/m2
14:00 62.6 °F /  17 °C 55.9 °F /  13.3 °C 29.8in /  1010.2hPa NNE 2mph /  3.2km/h 3mph /  4.8km/h 79% 0in /  0.0mm 352 W/m2
14:05 63 °F /  17.2 °C 55.9 °F /  13.3 °C 29.8in /  1010.2hPa NNE 0.9mph /  1.4km/h 4mph /  6.4km/h 78% 0in /  0.0mm 264 W/m2
14:10 63.1 °F /  17.3 °C 56.1 °F /  13.4 °C 29.8in /  1009.8hPa ENE 2mph /  3.2km/h 6mph /  9.7km/h 78% 0in /  0.0mm 285 W/m2
14:15 63.5 °F /  17.5 °C 56.5 °F /  13.6 °C 29.8in /  1009.5hPa Calm   4mph /  6.4km/h 78% 0in /  0.0mm 294 W/m2
14:20 63.7 °F /  17.6 °C 56.3 °F /  13.5 °C 29.8in /  1009.1hPa North 0.9mph /  1.4km/h 4mph /  6.4km/h 77% 0in /  0.0mm 151 W/m2
14:25 63.9 °F /  17.7 °C 56.1 °F /  13.4 °C 29.8in /  1009.1hPa Calm   11mph /  17.7km/h 76% 0in /  0.0mm 195 W/m2
14:30 64 °F /  17.8 °C 56.7 °F /  13.7 °C 29.8in /  1009.1hPa ENE 4.9mph /  7.9km/h 7mph /  11.3km/h 77% 0in /  0.0mm 264 W/m2
14:35 64.2 °F /  17.9 °C 56.5 °F /  13.6 °C 29.8in /  1008.8hPa NNE 4mph /  6.4km/h 7mph /  11.3km/h 76% 0in /  0.0mm 244 W/m2
14:40 64.2 °F /  17.9 °C 56.5 °F /  13.6 °C 29.8in /  1008.8hPa NNE 4mph /  6.4km/h 4mph /  6.4km/h 76% 0in /  0.0mm 271 W/m2
14:45 64.4 °F /  18 °C 56.3 °F /  13.5 °C 29.8in /  1008.5hPa ENE 2mph /  3.2km/h 6mph /  9.7km/h 75% 0in /  0.0mm 308 W/m2
14:50 64.8 °F /  18.2 °C 56.7 °F /  13.7 °C 29.8in /  1008.5hPa NE 2mph /  3.2km/h 4mph /  6.4km/h 75% 0in /  0.0mm 327 W/m2
14:55 64.9 °F /  18.3 °C 56.5 °F /  13.6 °C 29.8in /  1008.5hPa WNW 0.9mph /  1.4km/h 10mph /  16.1km/h 74% 0in /  0.0mm 283 W/m2
15:00 65.1 °F /  18.4 °C 57 °F /  13.9 °C 29.8in /  1008.5hPa Calm   7mph /  11.3km/h 75% 0in /  0.0mm 410 W/m2
15:05 65.7 °F /  18.7 °C 57.2 °F /  14 °C 29.8in /  1008.5hPa ENE 2.9mph /  4.7km/h 9mph /  14.5km/h 74% 0in /  0.0mm 385 W/m2
15:10 65.8 °F /  18.8 °C 57.4 °F /  14.1 °C 29.8in /  1008.5hPa ENE 2mph /  3.2km/h 7mph /  11.3km/h 74% 0in /  0.0mm 404 W/m2
15:15 65.8 °F /  18.8 °C 57 °F /  13.9 °C 29.8in /  1008.1hPa East 2mph /  3.2km/h 5mph /  8km/h 73% 0in /  0.0mm 176 W/m2
15:20 65.7 °F /  18.7 °C 56.3 °F /  13.5 °C 29.8in /  1008.1hPa East 6.9mph /  11.1km/h 7mph /  11.3km/h 72% 0in /  0.0mm 158 W/m2
15:25 65.5 °F /  18.6 °C 56.3 °F /  13.5 °C 29.8in /  1008.1hPa East 8.1mph /  13km/h 8mph /  12.9km/h 72% 0in /  0.0mm 185 W/m2
15:30 65.5 °F /  18.6 °C 56.7 °F /  13.7 °C 29.8in /  1008.1hPa ENE 2.9mph /  4.7km/h 4mph /  6.4km/h 73% 0in /  0.0mm 223 W/m2
15:35 65.7 °F /  18.7 °C 56.8 °F /  13.8 °C 29.8in /  1007.8hPa ENE 2mph /  3.2km/h 5mph /  8km/h 73% 0in /  0.0mm 199 W/m2
15:40 65.7 °F /  18.7 °C 56.3 °F /  13.5 °C 29.8in /  1007.8hPa East 2.9mph /  4.7km/h 5mph /  8km/h 72% 0in /  0.0mm 221 W/m2
15:45 65.8 °F /  18.8 °C 56.5 °F /  13.6 °C 29.8in /  1007.5hPa ESE 0.9mph /  1.4km/h 4mph /  6.4km/h 72% 0in /  0.0mm 297 W/m2
15:50 66 °F /  18.9 °C 56.3 °F /  13.5 °C 29.8in /  1007.5hPa NNW 2mph /  3.2km/h 8mph /  12.9km/h 71% 0in /  0.0mm 309 W/m2
15:55 66.4 °F /  19.1 °C 56.3 °F /  13.5 °C 29.8in /  1007.5hPa ESE 0.9mph /  1.4km/h 3mph /  4.8km/h 70% 0in /  0.0mm 257 W/m2
16:00 66.4 °F /  19.1 °C 56.3 °F /  13.5 °C 29.7in /  1007.1hPa East 4.9mph /  7.9km/h 6mph /  9.7km/h 70% 0in /  0.0mm 290 W/m2
16:05 66.7 °F /  19.3 °C 56.7 °F /  13.7 °C 29.7in /  1007.1hPa NE 2.9mph /  4.7km/h 4mph /  6.4km/h 70% 0in /  0.0mm 367 W/m2
16:10 66.9 °F /  19.4 °C 55.9 °F /  13.3 °C 29.7in /  1007.1hPa Calm   8mph /  12.9km/h 68% 0in /  0.0mm 216 W/m2
16:15 66.9 °F /  19.4 °C 55.9 °F /  13.3 °C 29.7in /  1007.1hPa Calm   5mph /  8km/h 68% 0in /  0.0mm 169 W/m2
16:20 66.7 °F /  19.3 °C 55.8 °F /  13.2 °C 29.7in /  1006.8hPa East 2.9mph /  4.7km/h 4mph /  6.4km/h 68% 0in /  0.0mm 220 W/m2
16:25 66.6 °F /  19.2 °C 56.1 °F /  13.4 °C 29.7in /  1006.8hPa NE 2mph /  3.2km/h 9mph /  14.5km/h 69% 0in /  0.0mm 190 W/m2
16:30 66.6 °F /  19.2 °C 56.1 °F /  13.4 °C 29.7in /  1006.4hPa NE 0.9mph /  1.4km/h 5mph /  8km/h 69% 0in /  0.0mm 185 W/m2
16:35 66.4 °F /  19.1 °C 55.9 °F /  13.3 °C 29.7in /  1006.8hPa Calm   3mph /  4.8km/h 69% 0in /  0.0mm 165 W/m2
16:40 66.4 °F /  19.1 °C 55.9 °F /  13.3 °C 29.7in /  1006.4hPa ESE 6.9mph /  11.1km/h 7mph /  11.3km/h 69% 0in /  0.0mm 153 W/m2
16:45 66.4 °F /  19.1 °C 56.3 °F /  13.5 °C 29.7in /  1006.4hPa East 2mph /  3.2km/h 3mph /  4.8km/h 70% 0in /  0.0mm 163 W/m2
16:50 66.4 °F /  19.1 °C 56.3 °F /  13.5 °C 29.7in /  1006.4hPa Calm   3mph /  4.8km/h 70% 0in /  0.0mm 160 W/m2
16:55 66.4 °F /  19.1 °C 55.9 °F /  13.3 °C 29.7in /  1006.4hPa NNE 4.9mph /  7.9km/h 6mph /  9.7km/h 69% 0in /  0.0mm 139 W/m2
17:00 66.4 °F /  19.1 °C 56.3 °F /  13.5 °C 29.7in /  1006.4hPa ENE 0.9mph /  1.4km/h 2mph /  3.2km/h 70% 0in /  0.0mm 113 W/m2
17:05 66.2 °F /  19 °C 55.8 °F /  13.2 °C 29.7in /  1006.1hPa NE 2mph /  3.2km/h 3mph /  4.8km/h 69% 0in /  0.0mm 100 W/m2
17:10 66.2 °F /  19 °C 55.8 °F /  13.2 °C 29.7in /  1006.1hPa East 2mph /  3.2km/h 8mph /  12.9km/h 69% 0in /  0.0mm 91 W/m2
17:15 66 °F /  18.9 °C 55.2 °F /  12.9 °C 29.7in /  1006.1hPa East 0.9mph /  1.4km/h 5mph /  8km/h 68% 0in /  0.0mm 88 W/m2
17:20 66 °F /  18.9 °C 55.2 °F /  12.9 °C 29.7in /  1006.1hPa Calm   2mph /  3.2km/h 68% 0in /  0.0mm 91 W/m2
17:25 65.8 °F /  18.8 °C 55 °F /  12.8 °C 29.7in /  1005.8hPa SE 4.9mph /  7.9km/h 6mph /  9.7km/h 68% 0in /  0.0mm 84 W/m2
17:30 65.8 °F /  18.8 °C 55.4 °F /  13 °C 29.7in /  1005.8hPa East 2mph /  3.2km/h 6mph /  9.7km/h 69% 0in /  0.0mm 77 W/m2
17:35 65.7 °F /  18.7 °C 55.2 °F /  12.9 °C 29.7in /  1005.8hPa ENE 2mph /  3.2km/h 6mph /  9.7km/h 69% 0in /  0.0mm 69 W/m2
17:40 65.7 °F /  18.7 °C 55.2 °F /  12.9 °C 29.7in /  1005.8hPa Calm   3mph /  4.8km/h 69% 0in /  0.0mm 63 W/m2
17:45 65.5 °F /  18.6 °C 55.4 °F /  13 °C 29.7in /  1005.8hPa East 2mph /  3.2km/h 6mph /  9.7km/h 70% 0in /  0.0mm 60 W/m2
17:50 65.5 °F /  18.6 °C 55.8 °F /  13.2 °C 29.7in /  1005.8hPa Calm   1mph /  1.6km/h 71% 0in /  0.0mm 62 W/m2
17:55 65.1 °F /  18.4 °C 55 °F /  12.8 °C 29.7in /  1005.4hPa SSE 0.9mph /  1.4km/h 3mph /  4.8km/h 70% 0in /  0.0mm 67 W/m2
18:00 64.9 °F /  18.3 °C 55.4 °F /  13 °C 29.7in /  1005.4hPa ENE 4mph /  6.4km/h 5mph /  8km/h 71% 0in /  0.0mm 65 W/m2
18:05 64.9 °F /  18.3 °C 54.9 °F /  12.7 °C 29.7in /  1005.4hPa East 0.9mph /  1.4km/h 3mph /  4.8km/h 70% 0in /  0.0mm 58 W/m2
18:10 64.9 °F /  18.3 °C 56.1 °F /  13.4 °C 29.7in /  1005.1hPa ENE 0.9mph /  1.4km/h 2mph /  3.2km/h 73% 0in /  0.0mm 47 W/m2
18:15 64.8 °F /  18.2 °C 55.2 °F /  12.9 °C 29.7in /  1005.1hPa ENE 2mph /  3.2km/h 4mph /  6.4km/h 71% 0in /  0.0mm 37 W/m2
18:20 64.8 °F /  18.2 °C 55.2 °F /  12.9 °C 29.7in /  1005.1hPa ENE 2.9mph /  4.7km/h 3mph /  4.8km/h 71% 0in /  0.0mm 30 W/m2
18:25 64.8 °F /  18.2 °C 55.2 °F /  12.9 °C 29.7in /  1005.1hPa East 0.9mph /  1.4km/h 4mph /  6.4km/h 71% 0in /  0.0mm 23 W/m2
18:30 64.8 °F /  18.2 °C 55.2 °F /  12.9 °C 29.7in /  1005.1hPa ENE 0.9mph /  1.4km/h 3mph /  4.8km/h 71% 0in /  0.0mm 18 W/m2
18:36 64.8 °F /  18.2 °C 55.2 °F /  12.9 °C 29.7in /  1005.1hPa Calm   3mph /  4.8km/h 71% 0in /  0.0mm 16 W/m2
18:41 64.8 °F /  18.2 °C 54.7 °F /  12.6 °C 29.7in /  1005.1hPa NE 2.9mph /  4.7km/h 3mph /  4.8km/h 70% 0in /  0.0mm 12 W/m2
18:46 64.8 °F /  18.2 °C 55.2 °F /  12.9 °C 29.7in /  1004.7hPa NE 0.9mph /  1.4km/h 5mph /  8km/h 71% 0in /  0.0mm 9 W/m2
18:51 64.6 °F /  18.1 °C 55.4 °F /  13 °C 29.7in /  1004.7hPa SW 0.9mph /  1.4km/h 1mph /  1.6km/h 72% 0in /  0.0mm 5 W/m2
18:56 64.2 °F /  17.9 °C 55 °F /  12.8 °C 29.7in /  1004.7hPa ENE 6.9mph /  11.1km/h 9mph /  14.5km/h 72% 0in /  0.0mm 0 W/m2
19:01 64.2 °F /  17.9 °C 55.8 °F /  13.2 °C 29.7in /  1004.7hPa NE 0.9mph /  1.4km/h 1mph /  1.6km/h 74% 0in /  0.0mm 0 W/m2
19:06 63.9 °F /  17.7 °C 55 °F /  12.8 °C 29.7in /  1004.7hPa ENE 2.9mph /  4.7km/h 9mph /  14.5km/h 73% 0in /  0.0mm 0 W/m2
19:11 63.9 °F /  17.7 °C 56.1 °F /  13.4 °C 29.7in /  1004.4hPa Calm     76% 0in /  0.0mm 0 W/m2
19:16 63.5 °F /  17.5 °C 55.4 °F /  13 °C 29.7in /  1004.4hPa NE 2.9mph /  4.7km/h 8mph /  12.9km/h 75% 0in /  0.0mm 0 W/m2
19:21 64 °F /  17.8 °C 55.2 °F /  12.9 °C 29.7in /  1004.4hPa Calm   3mph /  4.8km/h 73% 0in /  0.0mm 0 W/m2
19:26 64.2 °F /  17.9 °C 55.4 °F /  13 °C 29.7in /  1004.4hPa East 2mph /  3.2km/h 8mph /  12.9km/h 73% 0in /  0.0mm 0 W/m2
19:31 64.6 °F /  18.1 °C 55.8 °F /  13.2 °C 29.7in /  1004.4hPa ENE 4.9mph /  7.9km/h 7mph /  11.3km/h 73% 0in /  0.0mm 0 W/m2
19:36 64.6 °F /  18.1 °C 55.4 °F /  13 °C 29.7in /  1004.4hPa East 4.9mph /  7.9km/h 7mph /  11.3km/h 72% 0in /  0.0mm 0 W/m2
19:41 64.8 °F /  18.2 °C 55.6 °F /  13.1 °C 29.7in /  1004.4hPa ENE 0.9mph /  1.4km/h 5mph /  8km/h 72% 0in /  0.0mm 0 W/m2
19:46 64.9 °F /  18.3 °C 56.5 °F /  13.6 °C 29.7in /  1004.4hPa ENE 7mph /  11.3km/h 7mph /  11.3km/h 74% 0in /  0.0mm 0 W/m2
19:51 64.6 °F /  18.1 °C 56.8 °F /  13.8 °C 29.7in /  1004.4hPa Calm   2mph /  3.2km/h 76% 0in /  0.0mm 0 W/m2
19:56 64.2 °F /  17.9 °C 56.8 °F /  13.8 °C 29.7in /  1004.1hPa Calm   3mph /  4.8km/h 77% 0in /  0.0mm 0 W/m2
20:01 63.9 °F /  17.7 °C 57.6 °F /  14.2 °C 29.7in /  1004.4hPa Calm   4mph /  6.4km/h 80% 0in /  0.0mm 0 W/m2
20:06 63.1 °F /  17.3 °C 57.6 °F /  14.2 °C 29.7in /  1004.4hPa South 0.9mph /  1.4km/h 2mph /  3.2km/h 82% 0in /  0.0mm 0 W/m2
20:11 62.6 °F /  17 °C 57.4 °F /  14.1 °C 29.7in /  1004.1hPa East 0.9mph /  1.4km/h 3mph /  4.8km/h 83% 0in /  0.0mm 0 W/m2
20:16 62.2 °F /  16.8 °C 57.4 °F /  14.1 °C 29.7in /  1004.1hPa Calm   2mph /  3.2km/h 84% 0.01in /  0.2mm 0 W/m2
20:21 62.1 °F /  16.7 °C 57.6 °F /  14.2 °C 29.7in /  1004.1hPa ENE 0.9mph /  1.4km/h 4mph /  6.4km/h 85% 0.01in /  0.2mm 0 W/m2
20:26 61.9 °F /  16.6 °C 57.4 °F /  14.1 °C 29.7in /  1004.1hPa NE 0.9mph /  1.4km/h 4mph /  6.4km/h 85% 0.01in /  0.2mm 0 W/m2
20:31 61.9 °F /  16.6 °C 57.9 °F /  14.4 °C 29.7in /  1004.1hPa NE 4mph /  6.4km/h 4mph /  6.4km/h 87% 0.01in /  0.2mm 0 W/m2
20:36 61.7 °F /  16.5 °C 57.7 °F /  14.3 °C 29.7in /  1004.1hPa Calm   2mph /  3.2km/h 87% 0.01in /  0.2mm 0 W/m2
20:41 61.3 °F /  16.3 °C 57.7 °F /  14.3 °C 29.7in /  1004.1hPa Calm     88% 0.01in /  0.2mm 0 W/m2
20:46 61.2 °F /  16.2 °C 57.6 °F /  14.2 °C 29.7in /  1004.1hPa East 0.9mph /  1.4km/h 5mph /  8km/h 88% 0.01in /  0.2mm 0 W/m2
20:51 61.2 °F /  16.2 °C 57.9 °F /  14.4 °C 29.7in /  1004.1hPa NNE 2mph /  3.2km/h 2mph /  3.2km/h 89% 0.02in /  0.5mm 0 W/m2
20:56 61 °F /  16.1 °C 57.7 °F /  14.3 °C 29.6in /  1003.7hPa Calm   5mph /  8km/h 89% 0.02in /  0.5mm 0 W/m2
21:01 61 °F /  16.1 °C 57.7 °F /  14.3 °C 29.6in /  1003.7hPa Calm   1mph /  1.6km/h 89% 0.02in /  0.5mm 0 W/m2
21:06 61 °F /  16.1 °C 58.1 °F /  14.5 °C 29.6in /  1003.7hPa ESE 0.9mph /  1.4km/h 2mph /  3.2km/h 90% 0.02in /  0.5mm 0 W/m2
21:11 61.2 °F /  16.2 °C 57.9 °F /  14.4 °C 29.6in /  1003.7hPa ENE 2.9mph /  4.7km/h 7mph /  11.3km/h 89% 0.02in /  0.5mm 0 W/m2
21:16 61.9 °F /  16.6 °C 57.9 °F /  14.4 °C 29.6in /  1003.4hPa East 0.9mph /  1.4km/h 2mph /  3.2km/h 87% 0.01in /  0.2mm 0 W/m2
21:21 62.1 °F /  16.7 °C 57.7 °F /  14.3 °C 29.6in /  1003.4hPa East 2mph /  3.2km/h 5mph /  8km/h 86% 0.01in /  0.2mm 0 W/m2
21:26 62.4 °F /  16.9 °C 57.9 °F /  14.4 °C 29.6in /  1003.4hPa ENE 2mph /  3.2km/h 4mph /  6.4km/h 85% 0.01in /  0.2mm 0 W/m2
21:31 62.6 °F /  17 °C 58.3 °F /  14.6 °C 29.6in /  1003.4hPa Calm   2mph /  3.2km/h 86% 0.01in /  0.2mm 0 W/m2
21:36 62.2 °F /  16.8 °C 58.3 °F /  14.6 °C 29.6in /  1003.4hPa SE 0.9mph /  1.4km/h 2mph /  3.2km/h 87% 0.02in /  0.5mm 0 W/m2
21:41 61.9 °F /  16.6 °C 58.3 °F /  14.6 °C 29.6in /  1003.0hPa Calm   2mph /  3.2km/h 88% 0.02in /  0.5mm 0 W/m2
21:46 61.5 °F /  16.4 °C 57.9 °F /  14.4 °C 29.6in /  1003.0hPa NE 0.9mph /  1.4km/h 6mph /  9.7km/h 88% 0.02in /  0.5mm 0 W/m2
21:51 61.9 °F /  16.6 °C 57.9 °F /  14.4 °C 29.6in /  1003.0hPa ENE 0.9mph /  1.4km/h 2mph /  3.2km/h 87% 0.01in /  0.2mm 0 W/m2
21:56 62.1 °F /  16.7 °C 58.1 °F /  14.5 °C 29.6in /  1003.0hPa East 0.9mph /  1.4km/h 6mph /  9.7km/h 87% 0.01in /  0.2mm 0 W/m2
22:01 62.2 °F /  16.8 °C 57.9 °F /  14.4 °C 29.6in /  1003.0hPa ENE 0.9mph /  1.4km/h 2mph /  3.2km/h 86% 0.01in /  0.2mm 0 W/m2
22:06 62.2 °F /  16.8 °C 57.7 °F /  14.3 °C 29.6in /  1003.0hPa East 2mph /  3.2km/h 5mph /  8km/h 85% 0.01in /  0.2mm 0 W/m2
22:11 62.4 °F /  16.9 °C 57.9 °F /  14.4 °C 29.6in /  1003.0hPa Calm   1mph /  1.6km/h 85% 0.01in /  0.2mm 0 W/m2
22:16 62.2 °F /  16.8 °C 57.7 °F /  14.3 °C 29.6in /  1003.0hPa NE 2mph /  3.2km/h 5mph /  8km/h 85% 0.01in /  0.2mm 0 W/m2
22:21 62.4 °F /  16.9 °C 57.6 °F /  14.2 °C 29.6in /  1003.0hPa NE 0.9mph /  1.4km/h 3mph /  4.8km/h 84% 0.01in /  0.2mm 0 W/m2
22:26 63 °F /  17.2 °C 57.4 °F /  14.1 °C 29.6in /  1003.0hPa Calm   5mph /  8km/h 82% 0.01in /  0.2mm 0 W/m2
22:31 63 °F /  17.2 °C 57.4 °F /  14.1 °C 29.6in /  1002.7hPa NNE 4mph /  6.4km/h 5mph /  8km/h 82% 0.01in /  0.2mm 0 W/m2
22:36 63.1 °F /  17.3 °C 57.2 °F /  14 °C 29.6in /  1002.7hPa ENE 2mph /  3.2km/h 3mph /  4.8km/h 81% 0in /  0.0mm 0 W/m2
22:41 63.3 °F /  17.4 °C 57 °F /  13.9 °C 29.6in /  1002.7hPa ESE 0.9mph /  1.4km/h 7mph /  11.3km/h 80% 0in /  0.0mm 0 W/m2
22:46 63.5 °F /  17.5 °C 56.8 °F /  13.8 °C 29.6in /  1002.4hPa Calm   5mph /  8km/h 79% 0in /  0.0mm 0 W/m2
22:51 63.7 °F /  17.6 °C 56.7 °F /  13.7 °C 29.6in /  1002.4hPa ENE 2mph /  3.2km/h 4mph /  6.4km/h 78% 0in /  0.0mm 0 W/m2
22:56 64 °F /  17.8 °C 56.7 °F /  13.7 °C 29.6in /  1002.4hPa NNW 0.9mph /  1.4km/h 7mph /  11.3km/h 77% 0in /  0.0mm 0 W/m2
23:01 64 °F /  17.8 °C 56.7 °F /  13.7 °C 29.6in /  1002.4hPa North 2mph /  3.2km/h 4mph /  6.4km/h 77% 0in /  0.0mm 0 W/m2
23:06 64.2 °F /  17.9 °C 56.5 °F /  13.6 °C 29.6in /  1002.4hPa NE 4.9mph /  7.9km/h 5mph /  8km/h 76% 0in /  0.0mm 0 W/m2
23:11 64.2 °F /  17.9 °C 56.5 °F /  13.6 °C 29.6in /  1002.0hPa NE 2.9mph /  4.7km/h 4mph /  6.4km/h 76% 0in /  0.0mm 0 W/m2
23:16 64.2 °F /  17.9 °C 56.1 °F /  13.4 °C 29.6in /  1002.0hPa NNE 2mph /  3.2km/h 4mph /  6.4km/h 75% 0in /  0.0mm 0 W/m2
23:21 64.4 °F /  18 °C 56.3 °F /  13.5 °C 29.6in /  1002.0hPa Calm   5mph /  8km/h 75% 0in /  0.0mm 0 W/m2
23:26 64.4 °F /  18 °C 56.3 °F /  13.5 °C 29.6in /  1002.0hPa North 0.9mph /  1.4km/h 4mph /  6.4km/h 75% 0in /  0.0mm 0 W/m2
23:31 64.6 °F /  18.1 °C 56.5 °F /  13.6 °C 29.6in /  1002.0hPa ENE 4mph /  6.4km/h 5mph /  8km/h 75% 0in /  0.0mm 0 W/m2
23:37 64.8 °F /  18.2 °C 56.3 °F /  13.5 °C 29.6in /  1002.0hPa North 2mph /  3.2km/h 7mph /  11.3km/h 74% 0in /  0.0mm 0 W/m2
23:42 64.8 °F /  18.2 °C 56.3 °F /  13.5 °C 29.6in /  1002.0hPa ENE 2.9mph /  4.7km/h 4mph /  6.4km/h 74% 0in /  0.0mm 0 W/m2
23:47 64.8 °F /  18.2 °C 56.3 °F /  13.5 °C 29.6in /  1002.0hPa ENE 2mph /  3.2km/h 4mph /  6.4km/h 74% 0in /  0.0mm 0 W/m2
23:52 64.8 °F /  18.2 °C 56.3 °F /  13.5 °C 29.6in /  1002.0hPa ESE 2mph /  3.2km/h 3mph /  4.8km/h 74% 0in /  0.0mm 0 W/m2
23:57 64.8 °F /  18.2 °C 55.9 °F /  13.3 °C 29.6in /  1002.0hPa NNW 2mph /  3.2km/h 5mph /  8km/h 73% 0in /  0.0mm 0 W/m2
Juneau County Weather
Compliments of Weather Underground - 4 mb